SAAJ/JNI METAR and TAF weather

Enter ICAO airport designator
Station Type Date Time Source
SAAJ METAR 2021/04/08 22:25 UTC NOAA

SAAJ 082225Z 36006KT 8000 +TSRA SCT020CB OVC050 20/19 Q1009


Station Type Date Time Source
SAAJ Decoded METAR 2021/04/08 22:25 UTC NOAA

Junin Aerodrome, Argentina (SAAJ) 34-33S 060-55W 81M
Apr 08, 2021 - 06:25 PM EDT / 2021.04.08 2225 UTC
Wind: from the N (360 degrees) at 7 MPH (6 KT):0
Visibility: 4 mile(s):0
Sky conditions: overcast
Weather: heavy rain with thunder; Cumulonimbus clouds observed
Temperature: 68 F (20 C)
Dew Point: 66 F (19 C)
Relative Humidity: 93%
Pressure (altimeter): 29.80 in. Hg (1009 hPa)
ob: SAAJ 082225Z 36006KT 8000 +TSRA SCT020CB OVC050 20/19 Q1009
cycle: 22

Station Type Date Time Source
SAAJ TAF UTC NOAA

Error!

Example: see airport list